Terminal Aerodrome Forecast
Issued by NWS

Home | Current Version | Previous Version | Text Only | Print | Product List | Glossary On
Versions: 1 2 3 4 5 6 7 8 9 10 11 12 13 14 15
335
FTUS43 KMQT 241405 AAA
TAFIWD
TAF AMD
KIWD 241405Z 2414/2512 VRB03KT P6SM VCSH BKN027
     FM241900 32006KT P6SM SCT040
     FM250100 02003KT P6SM SCT060
     FM250600 13003KT P6SM SCT015=

USA.gov is the U.S. government's official web portal to all federal, state and local government web resources and services.